createdAt,value
2023-01-20T00:01:33.286Z,39.60
2023-01-20T00:04:00.390Z,39.60
2023-01-20T00:06:30.497Z,39.60
2023-01-20T00:09:01.201Z,39.50
2023-01-20T00:11:28.589Z,39.50
2023-01-20T00:13:56.265Z,39.50
2023-01-20T00:16:23.919Z,39.50
2023-01-20T00:18:50.981Z,39.50
2023-01-20T00:21:18.162Z,39.70
2023-01-20T00:23:45.892Z,39.50
2023-01-20T00:26:14.374Z,39.40
2023-01-20T00:28:41.271Z,39.40
2023-01-20T00:31:15.776Z,39.40
2023-01-20T00:33:43.018Z,39.40
2023-01-20T00:36:10.334Z,39.40
2023-01-20T00:38:37.508Z,39.40
2023-01-20T00:41:04.551Z,39.40
2023-01-20T00:43:31.547Z,39.40
2023-01-20T00:45:58.504Z,39.40
2023-01-20T00:48:25.603Z,39.30
2023-01-20T00:50:52.571Z,39.30
2023-01-20T00:53:19.538Z,39.30
2023-01-20T00:55:46.513Z,39.30
2023-01-20T00:58:13.541Z,39.30
2023-01-20T01:00:40.656Z,39.30
2023-01-20T01:03:07.588Z,39.30
2023-01-20T01:05:34.665Z,39.30
2023-01-20T01:08:01.667Z,39.30
2023-01-20T01:10:28.681Z,39.30
2023-01-20T01:12:55.626Z,39.30
2023-01-20T01:15:22.579Z,39.30
2023-01-20T01:17:49.608Z,39.20
2023-01-20T01:20:16.791Z,39.20
2023-01-20T01:22:43.727Z,39.20
2023-01-20T01:25:10.687Z,39.20
2023-01-20T01:27:37.649Z,39.20
2023-01-20T01:30:05.137Z,39.20
2023-01-20T01:32:32.122Z,39.10
2023-01-20T01:34:59.100Z,39.10
2023-01-20T01:37:27.222Z,39.10
2023-01-20T01:39:54.243Z,39.10
2023-01-20T01:42:23.718Z,39.10
2023-01-20T01:45:10.580Z,39.10
2023-01-20T01:47:44.263Z,39.10
2023-01-20T01:50:13.767Z,39.10
2023-01-20T01:52:42.587Z,39.00
2023-01-20T01:55:09.713Z,39.00
2023-01-20T01:57:36.682Z,39.00
2023-01-20T02:00:07.196Z,39.00
2023-01-20T02:02:36.250Z,38.90
2023-01-20T02:05:03.450Z,38.90
2023-01-20T02:07:32.620Z,38.90
2023-01-20T02:10:00.414Z,38.90
2023-01-20T02:12:27.664Z,38.90
2023-01-20T02:14:55.937Z,38.90
2023-01-20T02:17:28.404Z,38.90
2023-01-20T02:20:03.714Z,38.90
2023-01-20T02:22:37.984Z,38.90
2023-01-20T02:25:24.793Z,38.90
2023-01-20T02:28:11.598Z,38.90
2023-01-20T02:30:58.412Z,38.90
2023-01-20T02:33:39.252Z,38.90
2023-01-20T02:36:10.147Z,38.90
2023-01-20T02:38:44.179Z,38.90
2023-01-20T02:41:17.929Z,38.90
2023-01-20T02:43:51.093Z,38.90
2023-01-20T02:46:24.036Z,38.80
2023-01-20T02:48:53.780Z,38.80
2023-01-20T02:51:24.604Z,38.80
2023-01-20T02:53:57.172Z,38.70
2023-01-20T02:56:27.295Z,38.70
2023-01-20T02:58:57.214Z,38.80
2023-01-20T03:01:26.099Z,38.80
2023-01-20T03:03:54.438Z,38.80
2023-01-20T03:06:23.321Z,38.80
2023-01-20T03:08:51.938Z,38.80
2023-01-20T03:11:19.378Z,38.80
2023-01-20T03:13:53.825Z,38.70
2023-01-20T03:16:25.007Z,38.80
2023-01-20T03:18:52.194Z,38.80
2023-01-20T03:21:19.415Z,38.80
2023-01-20T03:23:48.154Z,38.80
2023-01-20T03:26:15.774Z,38.70
2023-01-20T03:28:44.769Z,38.70
2023-01-20T03:31:22.859Z,38.70
2023-01-20T03:33:51.454Z,38.70
2023-01-20T03:36:19.049Z,38.60
2023-01-20T03:38:46.372Z,38.60
2023-01-20T03:41:33.171Z,38.60
2023-01-20T03:44:19.468Z,38.60
2023-01-20T03:46:50.084Z,38.60
2023-01-20T03:49:26.360Z,38.60
2023-01-20T03:52:02.921Z,38.60
2023-01-20T03:54:33.736Z,38.60
2023-01-20T03:57:07.303Z,38.50
2023-01-20T03:59:35.272Z,38.50
2023-01-20T04:02:04.340Z,38.50
2023-01-20T04:04:33.697Z,38.50
2023-01-20T04:07:01.324Z,38.50
2023-01-20T04:09:30.008Z,38.50
2023-01-20T04:11:57.066Z,38.40
2023-01-20T04:14:24.028Z,38.40
2023-01-20T04:16:53.338Z,38.40
2023-01-20T04:19:20.327Z,38.40
2023-01-20T04:21:53.368Z,38.40
2023-01-20T04:24:26.722Z,38.40
2023-01-20T04:26:53.712Z,38.40
2023-01-20T04:29:20.750Z,38.40
2023-01-20T04:31:47.862Z,38.40
2023-01-20T04:34:18.278Z,38.40
2023-01-20T04:36:45.193Z,38.40
2023-01-20T04:39:12.477Z,38.40
2023-01-20T04:41:39.451Z,38.40
2023-01-20T04:44:06.726Z,38.40
2023-01-20T04:46:35.993Z,38.40
2023-01-20T04:49:03.969Z,38.40
2023-01-20T04:51:32.389Z,38.40
2023-01-20T04:53:59.816Z,38.40
2023-01-20T04:56:26.820Z,38.30
2023-01-20T04:58:53.759Z,38.30
2023-01-20T05:01:20.757Z,38.30
2023-01-20T05:03:47.729Z,38.30
2023-01-20T05:06:14.844Z,38.30
2023-01-20T05:08:41.720Z,38.30
2023-01-20T05:11:08.753Z,38.30
2023-01-20T05:13:39.314Z,38.30
2023-01-20T05:16:07.227Z,38.20
2023-01-20T05:18:34.417Z,38.30
2023-01-20T05:21:01.362Z,38.30
2023-01-20T05:23:28.274Z,38.30
2023-01-20T05:25:55.297Z,38.30
2023-01-20T05:28:22.480Z,38.30
2023-01-20T05:30:50.319Z,38.30
2023-01-20T05:33:17.399Z,38.30
2023-01-20T05:35:44.468Z,38.30
2023-01-20T05:38:11.421Z,38.10
2023-01-20T05:40:38.346Z,37.90
2023-01-20T05:43:05.325Z,37.80
2023-01-20T05:45:32.674Z,37.80
2023-01-20T05:48:00.057Z,37.80
2023-01-20T05:50:27.750Z,37.70
2023-01-20T05:52:54.751Z,37.70
2023-01-20T05:55:21.802Z,37.70
2023-01-20T05:57:48.781Z,37.60
2023-01-20T06:00:18.942Z,37.60
2023-01-20T06:02:46.230Z,37.50
2023-01-20T06:05:13.561Z,37.50
2023-01-20T06:07:40.722Z,37.40
2023-01-20T06:10:08.964Z,37.50
2023-01-20T06:12:35.929Z,37.50
2023-01-20T06:15:03.106Z,37.40
2023-01-20T06:17:30.069Z,37.40
2023-01-20T06:19:57.080Z,37.40
2023-01-20T06:22:24.054Z,37.40
2023-01-20T06:24:51.079Z,37.40
2023-01-20T06:27:18.422Z,37.40
2023-01-20T06:29:45.738Z,37.30
2023-01-20T06:32:13.221Z,37.40
2023-01-20T06:34:40.206Z,37.30
2023-01-20T06:37:07.309Z,37.10
2023-01-20T06:39:34.285Z,37.20
2023-01-20T06:42:01.283Z,37.10
2023-01-20T06:44:28.471Z,37.10
2023-01-20T06:46:57.533Z,37.10
2023-01-20T06:49:24.561Z,37.10
2023-01-20T06:51:51.534Z,37.10
2023-01-20T06:54:18.608Z,37.10
2023-01-20T06:56:46.081Z,37.10
2023-01-20T06:59:13.483Z,37.00
2023-01-20T07:01:40.773Z,37.00
2023-01-20T07:04:08.554Z,37.00
2023-01-20T07:06:39.822Z,36.90
2023-01-20T07:09:08.102Z,37.20
2023-01-20T07:11:38.119Z,37.70
2023-01-20T07:14:05.449Z,38.00
2023-01-20T07:16:33.089Z,38.10
2023-01-20T07:19:00.655Z,38.40
2023-01-20T07:21:27.965Z,38.60
2023-01-20T07:23:55.029Z,38.70
2023-01-20T07:26:22.943Z,38.60
2023-01-20T07:28:49.998Z,38.50
2023-01-20T07:31:18.208Z,38.40
2023-01-20T07:33:45.517Z,38.20
2023-01-20T07:36:13.209Z,38.70
2023-01-20T07:38:40.392Z,38.10
2023-01-20T07:41:10.560Z,38.00
2023-01-20T07:43:37.475Z,37.60
2023-01-20T07:46:05.382Z,37.30
2023-01-20T07:48:33.133Z,37.10
2023-01-20T07:51:08.229Z,37.00
2023-01-20T07:53:39.685Z,37.00
2023-01-20T07:56:08.272Z,37.00
2023-01-20T07:58:35.590Z,37.30
2023-01-20T08:01:09.538Z,37.40
2023-01-20T08:03:36.985Z,37.40
2023-01-20T08:06:08.568Z,37.40
2023-01-20T08:08:35.596Z,37.50
2023-01-20T08:11:03.195Z,37.40
2023-01-20T08:13:31.005Z,37.40
2023-01-20T08:16:02.741Z,37.40
2023-01-20T08:18:30.134Z,37.40
2023-01-20T08:20:57.074Z,37.40
2023-01-20T08:23:24.164Z,37.50
2023-01-20T08:25:58.700Z,37.40
2023-01-20T08:28:26.001Z,37.40
2023-01-20T08:30:53.043Z,37.40
2023-01-20T08:33:20.878Z,37.50
2023-01-20T08:35:48.412Z,37.40
2023-01-20T08:38:15.368Z,37.30
2023-01-20T08:40:43.229Z,37.20
2023-01-20T08:43:10.223Z,37.20
2023-01-20T08:45:37.253Z,36.90
2023-01-20T08:48:04.278Z,36.80
2023-01-20T08:50:31.186Z,36.90
2023-01-20T08:52:58.190Z,36.90
2023-01-20T08:55:25.126Z,37.10
2023-01-20T08:57:52.107Z,37.10
2023-01-20T09:00:19.804Z,37.00
2023-01-20T09:02:46.935Z,36.90
2023-01-20T09:05:15.140Z,36.60
2023-01-20T09:07:42.196Z,36.40
2023-01-20T09:10:09.355Z,36.30
2023-01-20T09:12:37.831Z,36.20
2023-01-20T09:15:07.697Z,36.00
2023-01-20T09:17:35.663Z,36.00
2023-01-20T09:20:02.649Z,35.90
2023-01-20T09:22:29.592Z,35.90
2023-01-20T09:24:56.794Z,35.80
2023-01-20T09:27:23.799Z,35.70
2023-01-20T09:29:50.706Z,35.60
2023-01-20T09:32:17.630Z,35.60
2023-01-20T09:34:44.611Z,35.50
2023-01-20T09:37:32.190Z,35.40
2023-01-20T09:40:18.953Z,35.30
2023-01-20T09:43:25.647Z,35.30
2023-01-20T09:46:12.494Z,35.20
2023-01-20T09:49:19.683Z,35.20
2023-01-20T09:52:10.255Z,35.30
2023-01-20T09:54:41.173Z,35.70
2023-01-20T09:57:08.765Z,35.70
2023-01-20T09:59:38.065Z,35.50
2023-01-20T10:02:08.208Z,35.40
2023-01-20T10:04:41.885Z,35.30
2023-01-20T10:07:23.793Z,35.30
2023-01-20T10:10:00.813Z,35.70
2023-01-20T10:13:36.464Z,35.30
2023-01-20T10:16:12.587Z,36.00
2023-01-20T10:18:56.831Z,35.90
2023-01-20T10:21:38.114Z,35.90
2023-01-20T10:24:14.222Z,35.80
2023-01-20T10:27:01.440Z,36.00
2023-01-20T10:29:38.319Z,36.00
2023-01-20T10:32:34.041Z,36.00
2023-01-20T10:35:11.125Z,36.10
2023-01-20T10:37:38.971Z,36.70
2023-01-20T10:40:45.061Z,36.10
2023-01-20T10:43:15.779Z,36.10
2023-01-20T10:46:22.759Z,36.10
2023-01-20T10:49:10.951Z,36.10
2023-01-20T10:51:51.626Z,36.00
2023-01-20T10:54:42.267Z,36.00
2023-01-20T10:57:14.370Z,36.00
2023-01-20T10:59:55.650Z,35.90
2023-01-20T11:02:28.314Z,35.70
2023-01-20T11:05:15.745Z,35.40
2023-01-20T11:07:44.720Z,35.30
2023-01-20T11:10:20.583Z,35.30
2023-01-20T11:12:55.063Z,35.30
2023-01-20T11:15:26.595Z,35.10
2023-01-20T11:18:22.110Z,35.10
2023-01-20T11:20:56.619Z,35.40
2023-01-20T11:23:39.063Z,35.90
2023-01-20T11:26:18.002Z,36.20
2023-01-20T11:29:00.332Z,36.40
2023-01-20T11:31:55.074Z,36.10
2023-01-20T11:34:30.144Z,35.70
2023-01-20T11:37:25.704Z,35.60
2023-01-20T11:40:02.190Z,35.60
2023-01-20T11:42:41.350Z,36.00
2023-01-20T11:45:34.824Z,36.10
2023-01-20T11:48:19.340Z,36.20
2023-01-20T11:50:50.460Z,36.20
2023-01-20T11:53:27.468Z,36.20
2023-01-20T11:56:02.315Z,36.20
2023-01-20T11:58:34.277Z,36.20
2023-01-20T12:01:06.152Z,36.10
2023-01-20T12:04:04.496Z,36.10
2023-01-20T12:06:36.571Z,36.10
2023-01-20T12:09:11.224Z,36.10
2023-01-20T12:11:50.643Z,36.10
2023-01-20T12:14:32.029Z,36.10
2023-01-20T12:17:21.986Z,36.20
2023-01-20T12:20:21.433Z,36.30
2023-01-20T12:23:01.465Z,36.20
2023-01-20T12:25:32.453Z,36.10
2023-01-20T12:28:22.393Z,36.00
2023-01-20T12:31:00.546Z,35.90
2023-01-20T12:33:35.529Z,35.90
2023-01-20T12:36:42.378Z,35.80
2023-01-20T12:39:41.371Z,35.70
2023-01-20T12:42:49.214Z,35.70
2023-01-20T12:45:56.041Z,35.90
2023-01-20T12:48:52.639Z,36.10
2023-01-20T12:51:40.249Z,36.30
2023-01-20T12:54:49.017Z,36.50
2023-01-20T12:57:43.890Z,36.40
2023-01-20T13:00:43.474Z,36.30
2023-01-20T13:03:42.062Z,36.30
2023-01-20T13:06:39.301Z,36.30
2023-01-20T13:09:41.218Z,36.40
2023-01-20T13:12:40.370Z,36.30
2023-01-20T13:15:28.522Z,36.30
2023-01-20T13:18:27.095Z,36.10
2023-01-20T13:20:55.742Z,36.30
2023-01-20T13:23:26.631Z,36.10
2023-01-20T13:25:55.397Z,35.80
2023-01-20T13:28:26.705Z,35.50
2023-01-20T13:30:55.986Z,35.30
2023-01-20T13:33:39.065Z,35.20
2023-01-20T13:36:21.803Z,35.20
2023-01-20T13:39:10.453Z,35.20
2023-01-20T13:41:51.090Z,35.30
2023-01-20T13:44:36.538Z,35.40
2023-01-20T13:47:07.603Z,35.60
2023-01-20T13:49:53.384Z,35.90
2023-01-20T13:53:00.174Z,36.10
2023-01-20T13:55:52.018Z,36.40
2023-01-20T13:58:34.353Z,36.60
2023-01-20T14:01:04.655Z,36.70
2023-01-20T14:03:35.279Z,36.70
2023-01-20T14:06:18.975Z,37.10
2023-01-20T14:08:48.748Z,37.20
2023-01-20T14:11:22.079Z,37.10
2023-01-20T14:13:55.635Z,37.10
2023-01-20T14:16:37.457Z,37.00
2023-01-20T14:19:28.082Z,36.80
2023-01-20T14:22:04.258Z,36.90
2023-01-20T14:24:36.951Z,37.60
2023-01-20T14:27:22.990Z,38.90
2023-01-20T14:29:52.483Z,39.80
2023-01-20T14:32:24.158Z,39.70
2023-01-20T14:34:52.642Z,39.60
2023-01-20T14:37:29.613Z,39.10
2023-01-20T14:39:58.998Z,38.70
2023-01-20T14:42:28.354Z,38.20
2023-01-20T14:44:57.421Z,37.80
2023-01-20T14:47:26.316Z,37.50
2023-01-20T14:49:54.798Z,37.10
2023-01-20T14:52:27.739Z,36.90
2023-01-20T14:54:59.091Z,36.70
2023-01-20T14:57:41.028Z,36.50
2023-01-20T15:00:26.425Z,36.30
2023-01-20T15:03:12.155Z,36.20
2023-01-20T15:05:42.864Z,36.20
2023-01-20T15:08:48.572Z,36.40
2023-01-20T15:11:28.495Z,36.50
2023-01-20T15:14:11.120Z,36.50
2023-01-20T15:16:47.590Z,36.50
2023-01-20T15:19:30.019Z,36.60
2023-01-20T15:22:17.126Z,36.60
2023-01-20T15:24:47.340Z,36.80
2023-01-20T15:27:31.544Z,37.00
2023-01-20T15:30:21.167Z,37.10
2023-01-20T15:32:49.714Z,37.30
2023-01-20T15:35:20.495Z,37.30
2023-01-20T15:37:47.685Z,37.40
2023-01-20T15:40:18.691Z,38.00
2023-01-20T15:42:46.875Z,37.50
2023-01-20T15:45:15.823Z,37.40
2023-01-20T15:47:45.021Z,37.50
2023-01-20T15:50:18.004Z,37.50
2023-01-20T15:52:45.369Z,37.50
2023-01-20T15:55:15.338Z,37.40
2023-01-20T15:57:43.276Z,37.40
2023-01-20T16:00:21.418Z,37.40
2023-01-20T16:02:48.590Z,37.30
2023-01-20T16:05:17.602Z,37.30
2023-01-20T16:07:47.120Z,37.20
2023-01-20T16:10:18.976Z,37.20
2023-01-20T16:12:48.406Z,37.20
2023-01-20T16:15:18.900Z,37.20
2023-01-20T16:17:46.562Z,37.20
2023-01-20T16:20:23.924Z,37.20
2023-01-20T16:22:51.949Z,37.30
2023-01-20T16:25:20.567Z,37.20
2023-01-20T16:27:47.673Z,37.20
2023-01-20T16:30:20.669Z,37.20
2023-01-20T16:32:48.467Z,37.20
2023-01-20T16:35:17.549Z,37.30
2023-01-20T16:37:46.516Z,37.30
2023-01-20T16:40:17.125Z,37.30
2023-01-20T16:42:44.443Z,37.30
2023-01-20T16:45:22.461Z,37.20
2023-01-20T16:47:50.099Z,37.30
2023-01-20T16:50:18.394Z,37.30
2023-01-20T16:52:45.777Z,37.80
2023-01-20T16:55:13.638Z,37.30
2023-01-20T16:57:40.827Z,37.30
2023-01-20T17:00:08.707Z,37.30
2023-01-20T17:02:35.880Z,37.20
2023-01-20T17:05:02.978Z,37.20
2023-01-20T17:07:30.087Z,37.30
2023-01-20T17:09:57.699Z,37.30
2023-01-20T17:12:24.793Z,37.80
2023-01-20T17:14:51.837Z,37.30
2023-01-20T17:17:18.928Z,37.30
2023-01-20T17:19:46.067Z,37.30
2023-01-20T17:22:13.221Z,37.20
2023-01-20T17:24:40.367Z,37.20
2023-01-20T17:27:07.564Z,37.20
2023-01-20T17:29:35.641Z,37.20
2023-01-20T17:32:02.807Z,37.20
2023-01-20T17:34:29.938Z,37.20
2023-01-20T17:36:57.019Z,37.30
2023-01-20T17:39:24.089Z,37.30
2023-01-20T17:41:51.189Z,37.20
2023-01-20T17:44:18.291Z,37.20
2023-01-20T17:46:47.755Z,37.20
2023-01-20T17:49:14.923Z,37.20
2023-01-20T17:51:42.802Z,37.20
2023-01-20T17:54:10.050Z,37.30
2023-01-20T17:56:37.149Z,37.30
2023-01-20T17:59:04.997Z,37.30
2023-01-20T18:01:33.578Z,37.20
2023-01-20T18:04:01.455Z,37.20
2023-01-20T18:06:29.251Z,37.20
2023-01-20T18:08:58.168Z,37.20
2023-01-20T18:11:27.251Z,37.20
2023-01-20T18:13:55.497Z,37.20
2023-01-20T18:16:27.758Z,37.20
2023-01-20T18:18:58.912Z,37.20
2023-01-20T18:21:30.078Z,37.10
2023-01-20T18:23:58.203Z,37.10
2023-01-20T18:26:32.251Z,37.10
2023-01-20T18:29:02.808Z,37.10
2023-01-20T18:31:32.314Z,37.10
2023-01-20T18:34:02.635Z,37.10
2023-01-20T18:36:35.815Z,37.20
2023-01-20T18:39:15.867Z,37.10
2023-01-20T18:41:43.661Z,37.10
2023-01-20T18:44:11.550Z,37.10
2023-01-20T18:46:39.081Z,37.10
2023-01-20T18:49:09.565Z,37.10
2023-01-20T18:51:37.359Z,37.10
2023-01-20T18:54:10.784Z,37.10
2023-01-20T18:56:38.033Z,37.20
2023-01-20T18:59:06.451Z,37.10
2023-01-20T19:01:36.279Z,37.10
2023-01-20T19:04:05.323Z,37.00
2023-01-20T19:06:35.734Z,37.10
2023-01-20T19:09:03.302Z,37.10
2023-01-20T19:11:32.268Z,37.10
2023-01-20T19:13:59.936Z,37.10
2023-01-20T19:16:32.657Z,37.10
2023-01-20T19:19:02.544Z,37.20
2023-01-20T19:21:32.822Z,37.10
2023-01-20T19:24:06.201Z,37.20
2023-01-20T19:26:35.751Z,37.20
2023-01-20T19:29:06.125Z,37.20
2023-01-20T19:31:36.376Z,37.10
2023-01-20T19:34:03.720Z,37.20
2023-01-20T19:36:31.360Z,37.10
2023-01-20T19:38:58.794Z,37.10
2023-01-20T19:41:28.270Z,37.10
2023-01-20T19:43:57.733Z,37.10
2023-01-20T19:46:28.084Z,37.10
2023-01-20T19:48:56.271Z,37.10
2023-01-20T19:51:23.465Z,37.10
2023-01-20T19:53:55.724Z,37.10
2023-01-20T19:56:23.347Z,37.10
2023-01-20T19:58:53.215Z,37.10
2023-01-20T20:01:26.106Z,37.10
2023-01-20T20:03:54.591Z,37.10
2023-01-20T20:06:25.604Z,37.20
2023-01-20T20:08:54.077Z,37.10
2023-01-20T20:11:21.221Z,37.20
2023-01-20T20:13:48.399Z,37.20
2023-01-20T20:16:15.772Z,37.20
2023-01-20T20:18:42.984Z,37.20
2023-01-20T20:21:10.147Z,37.30
2023-01-20T20:23:37.218Z,37.20
2023-01-20T20:26:04.359Z,37.20
2023-01-20T20:28:31.526Z,37.20
2023-01-20T20:31:05.861Z,37.20
2023-01-20T20:33:33.517Z,37.10
2023-01-20T20:36:00.713Z,37.20
2023-01-20T20:38:27.838Z,37.10
2023-01-20T20:41:01.341Z,37.10
2023-01-20T20:43:28.494Z,37.10
2023-01-20T20:46:00.422Z,37.10
2023-01-20T20:48:28.004Z,37.10
2023-01-20T20:50:55.299Z,37.10
2023-01-20T20:53:22.610Z,37.10
2023-01-20T20:55:53.970Z,37.10
2023-01-20T20:58:21.040Z,37.10
2023-01-20T21:00:51.287Z,37.10
2023-01-20T21:03:18.502Z,37.10
2023-01-20T21:05:49.596Z,37.10
2023-01-20T21:08:17.201Z,37.00
2023-01-20T21:10:44.298Z,37.10
2023-01-20T21:13:11.441Z,37.10
2023-01-20T21:15:38.888Z,37.10
2023-01-20T21:18:06.414Z,37.00
2023-01-20T21:20:34.012Z,37.00
2023-01-20T21:23:02.169Z,37.00
2023-01-20T21:25:29.336Z,37.00
2023-01-20T21:27:56.473Z,36.90
2023-01-20T21:30:23.680Z,36.90
2023-01-20T21:32:50.875Z,36.90
2023-01-20T21:35:18.008Z,36.90
2023-01-20T21:37:45.108Z,36.90
2023-01-20T21:40:12.805Z,36.90
2023-01-20T21:42:39.898Z,36.90
2023-01-20T21:45:07.606Z,36.90
2023-01-20T21:47:34.760Z,36.90
2023-01-20T21:50:21.722Z,36.90
2023-01-20T21:52:49.767Z,36.90
2023-01-20T21:55:24.256Z,36.90
2023-01-20T21:57:51.657Z,36.90
2023-01-20T22:00:19.494Z,36.90
2023-01-20T22:02:47.075Z,36.90
2023-01-20T22:05:14.287Z,36.90
2023-01-20T22:07:41.421Z,36.80
2023-01-20T22:10:09.591Z,36.80
2023-01-20T22:12:37.548Z,36.80
2023-01-20T22:15:05.217Z,36.80
2023-01-20T22:17:32.608Z,36.80
2023-01-20T22:19:59.917Z,36.80
2023-01-20T22:22:27.102Z,36.80
2023-01-20T22:24:54.341Z,36.80
2023-01-20T22:27:21.510Z,36.80
2023-01-20T22:29:49.175Z,36.80
2023-01-20T22:32:16.325Z,36.90
2023-01-20T22:34:43.461Z,36.90
2023-01-20T22:37:10.614Z,36.90
2023-01-20T22:39:37.708Z,36.90
2023-01-20T22:42:04.904Z,36.80
2023-01-20T22:44:32.028Z,36.80
2023-01-20T22:46:59.148Z,36.80
2023-01-20T22:49:26.495Z,36.80
2023-01-20T22:51:55.339Z,36.80
2023-01-20T22:54:22.563Z,36.80
2023-01-20T22:56:49.638Z,36.70
2023-01-20T22:59:16.766Z,36.70
2023-01-20T23:01:43.845Z,36.70
2023-01-20T23:04:11.256Z,36.70
2023-01-20T23:06:39.506Z,36.70
2023-01-20T23:09:10.913Z,36.70
2023-01-20T23:11:39.644Z,36.70
2023-01-20T23:14:07.540Z,36.70
2023-01-20T23:16:34.727Z,36.60
2023-01-20T23:19:01.881Z,36.60
2023-01-20T23:21:29.398Z,36.60
2023-01-20T23:23:56.494Z,36.60
2023-01-20T23:26:26.976Z,36.60
2023-01-20T23:28:54.324Z,36.60
2023-01-20T23:31:23.672Z,36.60
2023-01-20T23:33:51.137Z,36.60
2023-01-20T23:36:21.346Z,36.60
2023-01-20T23:38:48.660Z,36.60
2023-01-20T23:41:16.293Z,36.60
2023-01-20T23:43:43.489Z,36.60
2023-01-20T23:46:11.021Z,36.60
2023-01-20T23:48:38.664Z,36.60
2023-01-20T23:51:07.049Z,36.60
2023-01-20T23:53:37.891Z,36.60
2023-01-20T23:56:08.158Z,36.60
2023-01-20T23:58:35.291Z,36.60
